Time;durP1;ratioP1;P1;durP2;ratioP2;P2;SDS_P1;SDS_P2;PMS_P1;PMS_P2;Temp;Humidity;BMP_temperature;BMP_pressure;BME280_temperature;BME280_humidity;BME280_pressure;Samples;Min_cycle;Max_cycle;Signal;HPM_P1;HPM_P2
2021/05/19 00:01:56;;;;;;;12.20;1.73;;;17.50;96.70;;;;;;5092796;28;20036;-78
2021/05/19 00:04:25;;;;;;;8.45;2.28;;;17.50;96.70;;;;;;5096704;28;20050;-77
2021/05/19 00:06:53;;;;;;;9.45;1.90;;;17.50;96.70;;;;;;5101865;28;20449;-77
2021/05/19 00:09:25;;;;;;;9.43;1.60;;;17.50;96.70;;;;;;5096951;28;20070;-77
2021/05/19 00:11:53;;;;;;;9.48;1.95;;;17.40;96.70;;;;;;5098785;28;20073;-78
2021/05/19 00:14:22;;;;;;;6.78;1.50;;;17.40;96.70;;;;;;5100080;28;20050;-77
2021/05/19 00:16:50;;;;;;;9.90;1.55;;;17.40;96.70;;;;;;5097742;28;20038;-77
2021/05/19 00:20:02;;;;;;;9.73;1.80;;;17.40;96.70;;;;;;5100005;28;20104;-78
2021/05/19 00:22:31;;;;;;;10.43;1.85;;;17.40;96.70;;;;;;5100032;28;20122;-78
2021/05/19 00:24:59;;;;;;;8.98;1.40;;;17.30;96.70;;;;;;5100676;28;20035;-77
2021/05/19 00:27:27;;;;;;;10.77;2.17;;;17.30;96.70;;;;;;5102429;28;20047;-78
2021/05/19 00:29:56;;;;;;;9.88;1.90;;;17.30;96.70;;;;;;5100826;28;20120;-78
2021/05/19 00:32:26;;;;;;;16.23;3.33;;;17.30;96.70;;;;;;5103719;28;20065;-77
2021/05/19 00:34:55;;;;;;;9.88;1.85;;;17.30;96.70;;;;;;5100536;28;20059;-77
2021/05/19 00:37:24;;;;;;;8.98;1.85;;;17.30;96.70;;;;;;5102612;28;20120;-78
2021/05/19 00:39:54;;;;;;;10.73;2.10;;;17.20;96.70;;;;;;5098128;28;20050;-77
2021/05/19 00:42:24;;;;;;;10.52;2.20;;;17.10;96.70;;;;;;5096865;28;20126;-77
2021/05/19 00:44:53;;;;;;;10.25;2.20;;;17.10;96.70;;;;;;5098670;28;20451;-77
2021/05/19 00:47:33;;;;;;;12.27;2.60;;;16.90;96.70;;;;;;5099544;28;20046;-77
2021/05/19 00:50:03;;;;;;;8.98;1.98;;;16.70;96.70;;;;;;5102344;28;20465;-77
2021/05/19 00:52:32;;;;;;;11.60;1.60;;;16.70;96.70;;;;;;5095854;28;20043;-77
2021/05/19 00:55:02;;;;;;;10.43;2.13;;;16.70;96.70;;;;;;5102619;28;20126;-77
2021/05/19 00:57:32;;;;;;;14.93;2.45;;;16.70;96.70;;;;;;5098452;28;20477;-77
2021/05/19 01:00:03;;;;;;;12.77;2.15;;;16.60;96.70;;;;;;5102248;28;20066;-78
2021/05/19 01:02:46;;;;;;;13.00;3.03;;;16.60;96.70;;;;;;5100322;27;20043;-77
2021/05/19 01:05:22;;;;;;;9.30;1.70;;;16.60;96.70;;;;;;5103319;28;20120;-77
2021/05/19 01:11:05;;;;;;;12.25;2.05;;;16.50;96.70;;;;;;5091541;28;20197;-77
2021/05/19 01:13:35;;;;;;;15.20;2.17;;;16.50;96.70;;;;;;5101987;28;20055;-77
2021/05/19 01:16:05;;;;;;;11.70;2.03;;;16.60;96.70;;;;;;5094909;28;20493;-78
2021/05/19 01:18:35;;;;;;;12.45;2.90;;;16.60;96.70;;;;;;5096743;28;20106;-77
2021/05/19 01:21:05;;;;;;;11.77;2.25;;;16.60;96.70;;;;;;5098378;28;20047;-77
2021/05/19 01:23:38;;;;;;;14.02;2.17;;;16.60;96.70;;;;;;5082277;28;20074;-78
2021/05/19 01:26:13;;;;;;;12.10;2.25;;;16.70;96.70;;;;;;5099727;28;20039;-77
2021/05/19 01:28:43;;;;;;;14.50;2.45;;;16.60;96.70;;;;;;5098361;28;20053;-78
2021/05/19 01:35:06;;;;;;;12.23;2.17;;;16.60;96.70;;;;;;5101813;27;20527;-78
2021/05/19 01:37:38;;;;;;;9.60;1.70;;;16.60;96.70;;;;;;5103810;28;20450;-78
2021/05/19 01:40:10;;;;;;;12.32;2.20;;;16.50;96.70;;;;;;5104275;28;20548;-77
2021/05/19 01:42:39;;;;;;;12.50;2.85;;;16.60;96.70;;;;;;5100365;28;20073;-77
2021/05/19 01:45:22;;;;;;;11.05;2.08;;;16.60;96.70;;;;;;5102926;28;20040;-77
2021/05/19 01:48:16;;;;;;;14.05;2.60;;;16.60;96.70;;;;;;5101770;28;20135;-77
2021/05/19 01:50:47;;;;;;;9.70;2.55;;;16.50;96.70;;;;;;5101465;28;20078;-77
2021/05/19 01:53:17;;;;;;;15.20;2.78;;;16.50;96.70;;;;;;5104428;28;20039;-77
2021/05/19 01:55:49;;;;;;;10.52;2.80;;;16.60;96.70;;;;;;5064081;28;20063;-77
2021/05/19 01:58:19;;;;;;;9.35;1.88;;;16.50;96.70;;;;;;5065807;28;20705;-77
2021/05/19 02:00:51;;;;;;;12.00;2.28;;;16.60;96.70;;;;;;5065195;28;20051;-78
2021/05/19 02:03:30;;;;;;;13.82;2.20;;;16.50;96.70;;;;;;5064156;28;20111;-78
2021/05/19 02:06:09;;;;;;;10.32;2.00;;;16.50;96.70;;;;;;5062052;28;20036;-78
2021/05/19 02:08:38;;;;;;;11.63;2.55;;;16.50;96.70;;;;;;5064962;28;20433;-78
2021/05/19 02:11:12;;;;;;;15.23;2.65;;;16.50;96.70;;;;;;5056793;28;20123;-77
2021/05/19 02:13:40;;;;;;;13.20;2.28;;;16.60;96.70;;;;;;5063962;28;20041;-78
2021/05/19 02:16:13;;;;;;;10.80;2.80;;;16.60;96.70;;;;;;5065396;28;20679;-78
2021/05/19 02:18:48;;;;;;;14.02;2.78;;;16.60;96.70;;;;;;5073050;28;20541;-78
2021/05/19 02:21:20;;;;;;;13.02;2.05;;;16.60;96.70;;;;;;5058325;28;20128;-78
2021/05/19 02:23:59;;;;;;;7.72;2.13;;;16.60;96.70;;;;;;5079940;28;20448;-78
2021/05/19 02:26:30;;;;;;;17.50;2.50;;;16.70;96.70;;;;;;5061993;28;20080;-78
2021/05/19 02:29:00;;;;;;;14.60;2.65;;;16.70;96.70;;;;;;5063514;28;20382;-77
2021/05/19 02:31:34;;;;;;;13.63;2.47;;;16.60;96.70;;;;;;5061836;28;20045;-78
2021/05/19 02:34:02;;;;;;;14.68;2.47;;;16.60;96.70;;;;;;5079082;28;20630;-77
2021/05/19 02:36:31;;;;;;;17.65;3.55;;;16.60;96.70;;;;;;5062376;28;20036;-77
2021/05/19 02:39:01;;;;;;;13.55;2.50;;;16.60;96.70;;;;;;5058498;28;20049;-78
2021/05/19 02:41:33;;;;;;;13.90;2.45;;;16.60;96.70;;;;;;5053413;28;20048;-78
2021/05/19 02:44:02;;;;;;;11.48;2.63;;;16.60;96.70;;;;;;5062744;28;20388;-78
2021/05/19 02:46:31;;;;;;;15.15;2.63;;;16.60;96.70;;;;;;5062411;28;20037;-78
2021/05/19 02:49:03;;;;;;;12.43;3.40;;;16.60;96.70;;;;;;5062390;28;20491;-78
2021/05/19 02:51:35;;;;;;;11.65;2.90;;;16.50;96.70;;;;;;5063183;28;20156;-78
2021/05/19 02:54:06;;;;;;;9.82;2.03;;;16.50;96.70;;;;;;5077795;27;20056;-77
2021/05/19 02:56:36;;;;;;;15.32;2.67;;;16.50;96.70;;;;;;5088605;28;20105;-78
2021/05/19 02:59:05;;;;;;;15.90;2.35;;;16.50;96.70;;;;;;5100116;28;20058;-78
2021/05/19 03:01:33;;;;;;;13.68;2.38;;;16.50;96.70;;;;;;5094216;28;20408;-78
2021/05/19 03:04:57;;;;;;;13.18;2.58;;;16.50;96.70;;;;;;5101585;28;20052;-78
2021/05/19 03:07:25;;;;;;;10.43;2.38;;;16.50;96.70;;;;;;5120957;27;20056;-78
2021/05/19 03:09:54;;;;;;;12.57;2.58;;;16.50;96.70;;;;;;5102539;28;20413;-77
2021/05/19 03:12:24;;;;;;;13.35;2.65;;;16.50;96.70;;;;;;5085853;28;20592;-78
2021/05/19 03:14:53;;;;;;;11.95;2.72;;;16.50;96.70;;;;;;5106191;27;20067;-78
2021/05/19 03:17:24;;;;;;;17.27;2.45;;;16.50;96.70;;;;;;5094782;28;20051;-78
2021/05/19 03:19:54;;;;;;;12.30;2.20;;;16.50;96.70;;;;;;5104718;28;20032;-78
2021/05/19 03:22:24;;;;;;;12.95;2.50;;;16.40;96.70;;;;;;5098973;28;20604;-78
2021/05/19 03:24:54;;;;;;;13.38;2.28;;;16.50;96.70;;;;;;5103054;28;20044;-77
2021/05/19 03:27:25;;;;;;;9.68;2.17;;;16.50;96.70;;;;;;5097848;28;20159;-78
2021/05/19 03:29:55;;;;;;;14.45;2.67;;;16.50;96.70;;;;;;5103258;28;20039;-78
2021/05/19 03:32:24;;;;;;;11.48;2.78;;;16.40;96.70;;;;;;5081867;28;20048;-78
2021/05/19 03:34:52;;;;;;;11.38;2.13;;;16.40;96.70;;;;;;5104239;28;20096;-77
2021/05/19 03:37:21;;;;;;;13.77;2.92;;;16.40;96.70;;;;;;5100316;28;20035;-78
2021/05/19 03:39:50;;;;;;;12.02;2.20;;;16.30;96.70;;;;;;5104268;28;20562;-78
2021/05/19 03:42:19;;;;;;;15.90;2.60;;;16.30;96.70;;;;;;5082472;28;20039;-78
2021/05/19 03:44:50;;;;;;;15.73;3.17;;;16.20;96.70;;;;;;5091404;28;20054;-78
2021/05/19 03:47:21;;;;;;;11.77;2.38;;;16.20;96.70;;;;;;5099832;28;20035;-77
2021/05/19 03:49:51;;;;;;;15.68;2.88;;;16.20;96.70;;;;;;5094027;28;20064;-78
2021/05/19 03:52:31;;;;;;;11.60;2.50;;;16.20;96.70;;;;;;5102156;28;20163;-78
2021/05/19 03:55:01;;;;;;;14.20;3.05;;;16.20;96.70;;;;;;5099705;28;20428;-77
2021/05/19 03:57:30;;;;;;;12.05;2.78;;;16.20;96.70;;;;;;5101591;28;20568;-78
2021/05/19 03:59:59;;;;;;;17.45;3.80;;;16.20;96.70;;;;;;5099829;28;20123;-78
2021/05/19 04:02:29;;;;;;;20.23;2.75;;;16.10;96.70;;;;;;5103580;28;20481;-78
2021/05/19 04:04:57;;;;;;;12.80;2.60;;;16.10;96.70;;;;;;5083681;28;20409;-77
2021/05/19 04:07:26;;;;;;;9.55;2.17;;;16.00;96.70;;;;;;5102033;28;20042;-78
2021/05/19 04:09:55;;;;;;;14.57;2.63;;;16.10;96.70;;;;;;5099574;28;20101;-78
2021/05/19 04:12:24;;;;;;;17.17;2.85;;;16.10;96.70;;;;;;5103980;27;20040;-78
2021/05/19 04:14:53;;;;;;;12.68;2.47;;;16.00;96.70;;;;;;5097136;28;20097;-78
2021/05/19 04:17:23;;;;;;;19.10;3.15;;;16.00;96.70;;;;;;5100863;28;20039;-78
2021/05/19 04:19:53;;;;;;;17.95;2.90;;;16.00;96.70;;;;;;5083259;28;20043;-78
2021/05/19 04:22:23;;;;;;;15.63;2.80;;;16.10;96.70;;;;;;5095272;28;20039;-78
2021/05/19 04:24:52;;;;;;;15.55;2.75;;;16.10;96.70;;;;;;5100382;28;20127;-78
2021/05/19 04:27:22;;;;;;;14.27;2.63;;;16.10;96.70;;;;;;5099970;28;20050;-78
2021/05/19 04:29:51;;;;;;;13.45;2.70;;;16.10;96.70;;;;;;5097896;28;20124;-78
2021/05/19 04:32:19;;;;;;;14.57;2.83;;;16.20;96.70;;;;;;5103986;28;20027;-78
2021/05/19 04:34:50;;;;;;;15.82;2.72;;;16.10;96.70;;;;;;5079579;28;20578;-78
2021/05/19 04:37:19;;;;;;;14.52;2.80;;;16.10;96.70;;;;;;5080278;28;20505;-78
2021/05/19 04:39:47;;;;;;;15.90;2.88;;;16.10;96.70;;;;;;5083874;28;20063;-78
2021/05/19 04:42:16;;;;;;;16.77;2.80;;;16.20;96.70;;;;;;5102823;28;20050;-78
2021/05/19 04:44:45;;;;;;;14.10;2.42;;;16.30;96.70;;;;;;5082491;28;20493;-78
2021/05/19 04:47:13;;;;;;;13.63;2.28;;;16.30;96.70;;;;;;5102660;28;20035;-77
2021/05/19 04:49:42;;;;;;;10.07;2.33;;;16.30;96.70;;;;;;5081934;28;20510;-78
2021/05/19 04:52:11;;;;;;;14.73;2.63;;;16.20;96.70;;;;;;5100031;28;20668;-78
2021/05/19 04:54:40;;;;;;;18.45;3.20;;;16.20;96.70;;;;;;5099927;28;20606;-77
2021/05/19 04:57:08;;;;;;;13.23;2.88;;;16.30;96.70;;;;;;5100799;28;20088;-78
2021/05/19 04:59:38;;;;;;;17.75;3.25;;;16.30;96.70;;;;;;5097126;28;20039;-77
2021/05/19 05:02:08;;;;;;;11.05;2.38;;;16.30;96.70;;;;;;5103937;28;20040;-77
2021/05/19 05:04:36;;;;;;;19.40;3.53;;;16.30;96.70;;;;;;5107181;28;20050;-78
2021/05/19 05:07:05;;;;;;;20.58;3.47;;;16.30;96.70;;;;;;5101904;28;20031;-78
2021/05/19 05:09:34;;;;;;;11.55;2.88;;;16.30;96.70;;;;;;5106567;28;20039;-77
2021/05/19 05:12:03;;;;;;;18.88;3.33;;;16.30;96.70;;;;;;5083951;28;20303;-78
2021/05/19 05:14:31;;;;;;;18.17;3.22;;;16.40;96.70;;;;;;5107186;27;20112;-77
2021/05/19 05:17:00;;;;;;;17.70;2.97;;;16.40;96.70;;;;;;5103350;28;20039;-78
2021/05/19 05:19:28;;;;;;;18.92;3.38;;;16.50;96.70;;;;;;5101758;28;20059;-78
2021/05/19 05:21:57;;;;;;;13.40;3.08;;;16.50;96.70;;;;;;5097131;28;20039;-78
2021/05/19 05:24:29;;;;;;;14.07;3.30;;;16.60;96.70;;;;;;5097002;28;20043;-78
2021/05/19 05:26:58;;;;;;;22.45;3.63;;;16.50;96.70;;;;;;5099430;28;20150;-78
2021/05/19 05:29:27;;;;;;;12.63;2.42;;;16.60;96.70;;;;;;5107283;28;20123;-78
2021/05/19 05:31:55;;;;;;;15.55;2.80;;;16.60;96.70;;;;;;5102912;28;20077;-78
2021/05/19 05:34:24;;;;;;;17.73;3.35;;;16.70;96.70;;;;;;5083863;28;20143;-78
2021/05/19 05:36:52;;;;;;;13.73;2.90;;;16.70;96.70;;;;;;5085960;28;20036;-78
2021/05/19 05:39:21;;;;;;;13.32;2.53;;;16.80;96.70;;;;;;5105323;28;20036;-78
2021/05/19 05:41:49;;;;;;;16.60;3.15;;;16.80;96.70;;;;;;5082910;28;20455;-78
2021/05/19 05:44:19;;;;;;;15.30;2.85;;;16.80;96.70;;;;;;5106089;28;20039;-76
2021/05/19 05:46:48;;;;;;;14.18;2.67;;;16.90;96.70;;;;;;5085077;28;20040;-77
2021/05/19 05:49:16;;;;;;;15.02;3.47;;;17.00;96.70;;;;;;5105763;28;20474;-77
2021/05/19 05:51:45;;;;;;;12.93;2.97;;;17.10;96.70;;;;;;5098811;28;20043;-78
2021/05/19 05:54:13;;;;;;;12.25;2.40;;;17.10;96.70;;;;;;5103983;28;20158;-79
2021/05/19 05:56:43;;;;;;;14.65;2.92;;;17.10;96.70;;;;;;5102767;28;20051;-78
2021/05/19 05:59:12;;;;;;;16.33;3.30;;;17.10;96.70;;;;;;5103340;28;20052;-78
2021/05/19 06:01:42;;;;;;;11.65;2.92;;;17.20;96.70;;;;;;5098833;28;20044;-79
2021/05/19 06:04:12;;;;;;;11.85;2.55;;;17.30;96.70;;;;;;5083174;28;20071;-78
2021/05/19 06:06:41;;;;;;;14.20;3.92;;;17.40;96.70;;;;;;5100932;28;20493;-80
2021/05/19 06:09:10;;;;;;;15.80;2.80;;;17.40;96.70;;;;;;5103982;28;20043;-77
2021/05/19 06:11:38;;;;;;;13.35;3.22;;;17.40;96.70;;;;;;5104489;28;20040;-78
2021/05/19 06:14:07;;;;;;;16.20;3.55;;;17.40;96.70;;;;;;5099446;28;20343;-78
2021/05/19 06:16:42;;;;;;;11.55;2.63;;;17.40;96.70;;;;;;5100203;28;20047;-77
2021/05/19 06:19:11;;;;;;;14.85;3.03;;;17.30;96.70;;;;;;5102055;28;20065;-78
2021/05/19 06:21:39;;;;;;;11.25;2.63;;;17.30;96.70;;;;;;5097823;28;20040;-78
2021/05/19 06:24:08;;;;;;;16.75;3.20;;;17.40;96.70;;;;;;5091830;28;20409;-79
2021/05/19 06:26:37;;;;;;;13.60;3.55;;;17.40;96.70;;;;;;5104934;28;20043;-78
2021/05/19 06:29:05;;;;;;;15.00;3.05;;;17.50;96.70;;;;;;5085731;28;20509;-79
2021/05/19 06:31:34;;;;;;;14.40;2.55;;;17.60;96.70;;;;;;5099097;28;20039;-78
2021/05/19 06:34:04;;;;;;;14.85;2.90;;;17.60;96.70;;;;;;5101617;28;20067;-78
2021/05/19 06:36:34;;;;;;;14.38;2.80;;;17.60;96.70;;;;;;5076729;28;20044;-78
2021/05/19 06:39:03;;;;;;;14.13;2.65;;;17.60;96.70;;;;;;5098929;28;20075;-78
2021/05/19 06:41:32;;;;;;;10.18;2.47;;;17.70;96.70;;;;;;5101295;28;20796;-78
2021/05/19 06:44:00;;;;;;;9.10;2.45;;;17.70;96.70;;;;;;5098185;28;20513;-78
2021/05/19 06:46:28;;;;;;;11.60;3.25;;;17.80;96.70;;;;;;5102637;28;20151;-79
2021/05/19 06:49:02;;;;;;;11.30;2.72;;;17.90;96.70;;;;;;5099094;28;20066;-79
2021/05/19 06:51:32;;;;;;;13.02;2.78;;;17.80;96.70;;;;;;5103397;28;20044;-79
2021/05/19 06:54:01;;;;;;;14.07;2.72;;;17.80;96.70;;;;;;5061370;27;1148839;-78
2021/05/19 06:56:30;;;;;;;15.77;2.60;;;17.80;96.70;;;;;;5104052;28;20102;-79
2021/05/19 06:59:00;;;;;;;14.25;2.50;;;17.70;96.70;;;;;;5097825;28;20085;-79
2021/05/19 07:01:29;;;;;;;12.18;2.65;;;17.70;96.70;;;;;;5103617;28;20067;-78
2021/05/19 07:03:57;;;;;;;11.20;2.53;;;17.80;96.70;;;;;;5100079;28;20134;-78
2021/05/19 07:06:27;;;;;;;12.57;2.50;;;17.80;96.70;;;;;;5101638;28;20055;-79
2021/05/19 07:08:56;;;;;;;17.75;2.60;;;17.80;96.70;;;;;;5100588;28;20039;-79
2021/05/19 07:11:24;;;;;;;13.63;2.90;;;17.90;96.70;;;;;;5098566;28;20091;-78
2021/05/19 07:13:55;;;;;;;12.00;2.25;;;18.00;96.70;;;;;;5103403;27;20031;-79
2021/05/19 07:16:24;;;;;;;12.85;2.67;;;18.10;96.70;;;;;;5103358;28;20135;-79
2021/05/19 07:18:55;;;;;;;13.13;2.35;;;18.20;96.70;;;;;;5101074;27;20101;-79
2021/05/19 07:21:24;;;;;;;11.70;2.50;;;18.20;96.70;;;;;;5100714;28;20069;-80
2021/05/19 07:23:52;;;;;;;12.77;2.53;;;18.10;96.70;;;;;;5102739;28;20545;-79
2021/05/19 07:26:24;;;;;;;16.40;3.00;;;18.10;96.70;;;;;;5100370;28;20516;-79
2021/05/19 07:28:52;;;;;;;12.70;2.35;;;18.10;96.70;;;;;;5094888;28;20490;-79
2021/05/19 07:31:20;;;;;;;9.82;2.17;;;18.20;96.70;;;;;;5078923;28;20048;-79
2021/05/19 07:33:49;;;;;;;11.13;2.53;;;18.30;96.70;;;;;;5102122;28;20043;-80
2021/05/19 07:36:17;;;;;;;14.10;2.60;;;18.20;96.70;;;;;;5101524;28;20095;-79
2021/05/19 07:38:46;;;;;;;13.10;2.72;;;18.20;96.70;;;;;;5104234;28;20044;-78
2021/05/19 07:41:14;;;;;;;9.38;1.85;;;18.10;96.70;;;;;;5102324;28;20047;-77
2021/05/19 07:43:43;;;;;;;12.32;2.88;;;18.10;96.70;;;;;;5101042;28;20051;-78
2021/05/19 07:46:11;;;;;;;14.70;2.10;;;18.20;96.70;;;;;;5098477;28;20070;-78
2021/05/19 07:48:38;;;;;;;8.85;2.42;;;18.20;96.70;;;;;;5103384;28;20085;-78
2021/05/19 07:51:05;;;;;;;11.63;2.35;;;18.30;96.70;;;;;;5096714;28;20124;-78
2021/05/19 07:53:32;;;;;;;8.40;2.08;;;18.40;96.70;;;;;;5103621;28;20043;-78
2021/05/19 07:56:07;;;;;;;13.10;2.50;;;18.40;96.70;;;;;;5096161;28;20485;-79
2021/05/19 07:58:41;;;;;;;9.83;2.30;;;18.60;96.70;;;;;;5102280;28;20115;-79
2021/05/19 08:01:24;;;;;;;13.45;2.30;;;18.70;96.70;;;;;;5100197;28;20805;-79
2021/05/19 08:03:51;;;;;;;8.18;2.60;;;18.60;96.70;;;;;;5100380;28;20036;-78
2021/05/19 08:06:19;;;;;;;10.65;1.90;;;18.60;96.70;;;;;;5097425;28;20558;-78
2021/05/19 08:08:46;;;;;;;9.23;2.08;;;18.80;96.70;;;;;;5085238;28;20047;-79
2021/05/19 08:11:16;;;;;;;7.03;2.03;;;18.90;96.70;;;;;;5101006;28;20031;-79
2021/05/19 08:13:46;;;;;;;7.95;1.80;;;19.00;96.70;;;;;;5104052;28;20038;-79
2021/05/19 08:16:14;;;;;;;15.05;2.35;;;19.00;96.70;;;;;;5096275;28;20520;-78
2021/05/19 08:18:41;;;;;;;9.38;2.35;;;19.10;96.70;;;;;;5103052;28;20038;-78
2021/05/19 08:21:10;;;;;;;8.57;1.90;;;19.10;96.70;;;;;;5098980;28;20036;-79
2021/05/19 08:23:38;;;;;;;10.85;1.48;;;19.30;96.70;;;;;;5104242;28;20130;-79
2021/05/19 08:26:06;;;;;;;7.10;1.67;;;19.40;96.70;;;;;;5100230;28;20134;-79
2021/05/19 08:28:36;;;;;;;7.85;1.85;;;19.50;96.70;;;;;;5101888;28;20716;-79
2021/05/19 08:31:04;;;;;;;8.93;1.83;;;19.60;96.70;;;;;;5116404;27;20100;-78
2021/05/19 08:33:46;;;;;;;6.53;1.75;;;19.70;96.70;;;;;;5098951;28;20044;-79
2021/05/19 08:36:14;;;;;;;7.43;1.90;;;19.90;96.70;;;;;;5075890;28;20135;-80
2021/05/19 08:38:43;;;;;;;8.07;1.65;;;20.00;96.70;;;;;;5080987;28;20040;-80
2021/05/19 08:41:12;;;;;;;6.93;2.00;;;20.10;96.70;;;;;;5099845;28;20392;-79
2021/05/19 08:43:40;;;;;;;6.72;2.17;;;20.10;96.70;;;;;;5099028;28;20043;-80
2021/05/19 08:46:10;;;;;;;6.38;1.58;;;20.10;96.70;;;;;;5101807;28;20455;-80
2021/05/19 08:48:39;;;;;;;6.85;1.58;;;20.10;96.70;;;;;;5098576;28;20050;-80
2021/05/19 08:51:08;;;;;;;7.00;1.40;;;20.20;96.70;;;;;;5103024;28;20046;-80
2021/05/19 08:53:37;;;;;;;4.70;1.63;;;20.20;96.40;;;;;;5102240;28;20116;-80
2021/05/19 08:56:07;;;;;;;7.25;1.60;;;20.20;95.60;;;;;;5101243;28;20047;-80
2021/05/19 08:58:35;;;;;;;7.43;1.52;;;20.30;96.60;;;;;;5098167;28;20063;-79
2021/05/19 09:01:04;;;;;;;9.32;1.63;;;20.60;96.30;;;;;;5102703;28;20051;-79
2021/05/19 09:03:34;;;;;;;7.25;1.60;;;20.70;96.00;;;;;;5097385;28;20036;-79
2021/05/19 09:06:08;;;;;;;7.53;1.95;;;20.50;96.20;;;;;;5099612;28;20509;-79
2021/05/19 09:08:37;;;;;;;7.60;2.05;;;20.60;96.70;;;;;;5096431;28;20040;-79
2021/05/19 09:11:13;;;;;;;7.95;1.80;;;20.70;96.10;;;;;;5101014;28;20043;-80
2021/05/19 09:13:46;;;;;;;5.22;1.27;;;20.80;95.20;;;;;;5096369;28;20063;-80
2021/05/19 09:16:25;;;;;;;6.53;1.23;;;20.60;95.20;;;;;;5101993;28;20051;-79
2021/05/19 09:18:55;;;;;;;6.97;1.73;;;20.60;95.50;;;;;;5091980;28;20130;-78
2021/05/19 09:21:37;;;;;;;8.23;1.65;;;20.80;95.70;;;;;;5096815;28;20027;-79
2021/05/19 09:24:09;;;;;;;5.25;1.52;;;20.70;95.60;;;;;;5096549;28;20076;-80
2021/05/19 09:26:54;;;;;;;7.50;1.67;;;20.50;95.40;;;;;;5096849;28;20036;-80
2021/05/19 09:29:24;;;;;;;9.48;2.22;;;20.60;96.20;;;;;;5099834;28;20067;-80
2021/05/19 09:31:55;;;;;;;7.95;1.80;;;20.80;96.30;;;;;;5080482;28;20052;-80
2021/05/19 09:34:25;;;;;;;7.90;1.58;;;21.20;95.50;;;;;;5101487;28;20042;-80
2021/05/19 09:37:22;;;;;;;7.50;1.83;;;21.30;94.70;;;;;;5095731;28;20054;-80
2021/05/19 09:39:54;;;;;;;6.80;1.70;;;21.40;94.00;;;;;;5101807;28;20122;-79
2021/05/19 09:42:25;;;;;;;7.72;2.40;;;21.40;95.50;;;;;;5100963;28;20097;-79
2021/05/19 09:44:56;;;;;;;6.82;1.63;;;21.50;95.30;;;;;;5102367;28;20049;-80
2021/05/19 09:47:41;;;;;;;7.07;1.73;;;21.60;94.40;;;;;;5102687;28;20050;-80
2021/05/19 09:50:15;;;;;;;6.65;1.60;;;21.70;94.30;;;;;;5096851;28;20039;-80
2021/05/19 09:53:02;;;;;;;6.60;2.03;;;21.80;94.10;;;;;;5099235;28;20039;-80
2021/05/19 09:55:32;;;;;;;6.20;1.60;;;21.90;94.20;;;;;;5103261;28;20052;-80
2021/05/19 09:58:00;;;;;;;6.45;1.50;;;21.90;92.90;;;;;;5102200;28;20104;-80
2021/05/19 10:00:29;;;;;;;4.88;1.70;;;21.80;92.30;;;;;;5102852;28;20093;-80
2021/05/19 10:03:00;;;;;;;4.13;1.55;;;21.70;92.70;;;;;;5095896;28;20133;-79
2021/05/19 10:05:36;;;;;;;6.00;1.52;;;21.90;92.50;;;;;;5097730;28;20520;-79
2021/05/19 10:08:05;;;;;;;7.50;2.13;;;22.00;91.60;;;;;;5101951;28;20523;-79
2021/05/19 10:10:34;;;;;;;3.20;1.30;;;22.10;90.80;;;;;;5100035;28;20040;-79
2021/05/19 10:13:03;;;;;;;4.53;1.45;;;22.30;89.60;;;;;;5106169;28;20031;-79
2021/05/19 10:15:33;;;;;;;2.97;1.25;;;22.40;89.10;;;;;;5088764;28;20043;-79
2021/05/19 10:18:04;;;;;;;3.67;1.13;;;22.50;88.60;;;;;;5105915;28;20036;-80
2021/05/19 10:20:36;;;;;;;4.22;1.13;;;22.50;89.60;;;;;;5101059;28;20047;-79
2021/05/19 10:23:07;;;;;;;2.72;0.98;;;22.60;89.50;;;;;;5100629;28;20040;-80
2021/05/19 10:25:38;;;;;;;3.30;0.90;;;22.70;88.20;;;;;;5100896;28;20044;-80
2021/05/19 10:28:09;;;;;;;2.85;0.82;;;22.80;86.80;;;;;;5102149;28;20044;-80
2021/05/19 10:30:40;;;;;;;2.92;1.10;;;22.80;87.70;;;;;;5102101;28;20040;-80
2021/05/19 10:33:46;;;;;;;3.63;1.13;;;22.70;88.10;;;;;;5104412;28;20496;-79
2021/05/19 10:36:35;;;;;;;3.17;1.10;;;22.80;87.80;;;;;;5103360;28;20116;-79
2021/05/19 10:39:24;;;;;;;2.17;0.65;;;23.20;87.50;;;;;;5101419;28;20119;-79
2021/05/19 10:41:55;;;;;;;3.35;1.15;;;23.50;86.00;;;;;;5103959;28;20112;-79
2021/05/19 10:44:27;;;;;;;3.15;0.90;;;23.60;84.60;;;;;;5088829;28;20040;-80
2021/05/19 10:47:10;;;;;;;3.10;0.90;;;23.70;83.90;;;;;;5105851;28;20066;-80
2021/05/19 10:50:22;;;;;;;3.15;0.93;;;23.70;84.00;;;;;;5105087;27;20093;-80
2021/05/19 10:58:58;;;;;;;1.95;0.40;;;23.80;82.40;;;;;;5099774;28;20380;-79
2021/05/19 11:01:56;;;;;;;2.58;0.63;;;23.30;82.20;;;;;;5085983;28;20120;-79
2021/05/19 11:04:28;;;;;;;1.13;0.50;;;23.20;83.40;;;;;;5099078;28;20955;-79
2021/05/19 11:07:09;;;;;;;4.25;1.05;;;23.50;82.40;;;;;;5101727;28;20055;-79
2021/05/19 11:09:43;;;;;;;1.73;0.52;;;23.70;82.50;;;;;;5104175;28;20142;-79
2021/05/19 11:12:39;;;;;;;1.80;0.35;;;23.80;81.70;;;;;;5092425;28;20039;-78
2021/05/19 11:15:52;;;;;;;2.38;0.30;;;24.00;80.10;;;;;;5125261;27;20051;-79
2021/05/19 11:21:15;;;;;;;0.63;0.30;;;24.30;79.90;;;;;;5073827;27;20438;-79
2021/05/19 11:23:57;;;;;;;0.85;0.20;;;24.60;79.90;;;;;;5099900;28;20079;-79
2021/05/19 11:26:26;;;;;;;0.60;0.20;;;24.60;77.40;;;;;;5101370;28;20570;-79
2021/05/19 11:28:57;;;;;;;1.83;0.40;;;24.70;76.80;;;;;;5097130;28;20047;-80
2021/05/19 11:31:33;;;;;;;1.63;0.25;;;24.50;76.80;;;;;;5083157;28;20059;-80
2021/05/19 11:34:03;;;;;;;1.77;0.22;;;24.70;77.50;;;;;;5101967;28;20505;-80
2021/05/19 11:36:39;;;;;;;1.48;0.25;;;24.50;77.20;;;;;;5084272;28;20405;-80
2021/05/19 11:39:38;;;;;;;0.85;0.20;;;24.10;78.00;;;;;;5083458;28;20054;-79
2021/05/19 11:42:34;;;;;;;0.40;0.20;;;23.70;77.90;;;;;;4984781;28;20057;-80
2021/05/19 11:45:07;;;;;;;0.55;0.20;;;23.40;76.60;;;;;;4996459;28;20143;-80
2021/05/19 11:47:37;;;;;;;2.17;0.20;;;23.20;79.50;;;;;;4997299;28;20057;-80
2021/05/19 11:50:15;;;;;;;0.82;0.20;;;23.00;78.60;;;;;;5003744;28;20434;-79
2021/05/19 11:52:45;;;;;;;;;;;22.80;78.50;;;;;;5014030;28;20076;-80
2021/05/19 11:55:28;;;;;;;1.73;0.10;;;22.80;78.60;;;;;;5019609;28;19968;-79
2021/05/19 11:58:15;;;;;;;1.15;0.08;;;22.60;79.40;;;;;;5019343;28;20053;-79
2021/05/19 12:00:47;;;;;;;0.55;0.10;;;22.40;79.60;;;;;;4995543;28;20107;-79
2021/05/19 12:03:16;;;;;;;0.57;0.10;;;22.40;79.50;;;;;;5001266;28;20068;-79
2021/05/19 12:05:49;;;;;;;0.40;0.10;;;22.30;79.70;;;;;;5002747;28;20541;-79
2021/05/19 12:08:18;;;;;;;0.73;0.10;;;22.30;79.90;;;;;;5012295;28;20061;-80
2021/05/19 12:10:49;;;;;;;2.13;0.15;;;22.20;80.00;;;;;;4999367;28;20053;-79
2021/05/19 12:13:26;;;;;;;0.20;0.10;;;22.10;79.50;;;;;;5020854;28;20045;-80
2021/05/19 12:15:56;;;;;;;;;;;22.00;79.40;;;;;;5044010;28;20448;-79
2021/05/19 12:18:24;;;;;;;4.95;0.40;;;22.00;79.00;;;;;;5102496;28;20026;-79
2021/05/19 12:20:53;;;;;;;0.38;0.10;;;21.90;80.00;;;;;;5092043;28;20039;-80
2021/05/19 12:23:22;;;;;;;0.30;0.10;;;21.90;79.40;;;;;;5099951;28;20512;-79
2021/05/19 12:25:56;;;;;;;1.42;0.20;;;21.90;79.70;;;;;;5096764;28;20039;-78
2021/05/19 12:28:25;;;;;;;0.73;0.10;;;21.90;80.80;;;;;;5101778;28;20047;-78
2021/05/19 12:31:00;;;;;;;0.32;0.00;;;21.90;80.30;;;;;;5100133;28;20536;-80
2021/05/19 12:33:37;;;;;;;1.02;0.25;;;21.80;79.30;;;;;;5097628;28;20336;-80
2021/05/19 12:36:06;;;;;;;1.52;0.45;;;21.70;79.30;;;;;;5097424;28;20040;-80
2021/05/19 12:38:46;;;;;;;1.42;0.50;;;21.70;79.40;;;;;;5102255;28;20040;-80
2021/05/19 12:41:14;;;;;;;0.98;0.30;;;21.70;79.30;;;;;;5102131;28;20493;-80
2021/05/19 12:43:42;;;;;;;3.65;0.52;;;21.50;80.50;;;;;;5096032;28;20036;-79
2021/05/19 12:46:13;;;;;;;5.10;1.58;;;21.50;80.20;;;;;;5102752;28;20039;-80
2021/05/19 12:48:53;;;;;;;7.70;1.75;;;20.90;95.10;;;;;;5094158;28;20154;-80
2021/05/19 12:51:21;;;;;;;8.13;1.70;;;20.50;96.70;;;;;;5098772;28;20050;-81
2021/05/19 12:53:55;;;;;;;6.93;1.85;;;20.40;96.70;;;;;;5101022;28;20107;-80
2021/05/19 12:56:25;;;;;;;5.78;1.27;;;20.30;96.70;;;;;;5100871;28;20066;-78
2021/05/19 12:58:56;;;;;;;6.28;1.73;;;20.10;96.70;;;;;;5099960;28;20047;-80
2021/05/19 13:01:28;;;;;;;5.18;0.90;;;20.00;96.70;;;;;;5102551;28;20401;-79
2021/05/19 13:03:58;;;;;;;3.42;0.65;;;20.10;96.70;;;;;;5100391;28;20193;-79
2021/05/19 13:06:27;;;;;;;3.05;0.60;;;19.90;96.30;;;;;;5102297;28;20141;-79
2021/05/19 13:08:56;;;;;;;2.90;0.80;;;19.90;96.00;;;;;;5102022;28;20032;-79
2021/05/19 13:11:25;;;;;;;4.40;0.90;;;19.90;95.60;;;;;;5100334;28;20047;-79
2021/05/19 13:13:54;;;;;;;4.22;0.68;;;20.00;95.50;;;;;;5100421;28;20047;-80
2021/05/19 13:16:24;;;;;;;2.40;0.60;;;20.00;93.20;;;;;;5084246;28;20047;-79
2021/05/19 13:19:09;;;;;;;1.23;0.50;;;20.00;94.50;;;;;;5095430;28;20043;-80
2021/05/19 13:24:12;;;;;;;2.80;0.75;;;21.00;94.00;;;;;;5102264;28;20043;-80
2021/05/19 13:26:44;;;;;;;2.72;0.90;;;21.50;90.50;;;;;;5103934;28;20478;-78